Time;durP1;ratioP1;P1;durP2;ratioP2;P2;SDS_P1;SDS_P2;PMS_P1;PMS_P2;Temp;Humidity;BMP_temperature;BMP_pressure;BME280_temperature;BME280_humidity;BME280_pressure;Samples;Min_cycle;Max_cycle;Signal;HPM_P1;HPM_P2
2022/11/01 00:01:41;;;;;;;29.23;24.42;;;10.30;99.90;;;;;;5032243;28;20036;-74
2022/11/01 00:04:07;;;;;;;28.52;24.33;;;10.40;99.90;;;;;;5031068;28;20029;-77
2022/11/01 00:06:33;;;;;;;34.30;26.30;;;10.30;99.90;;;;;;5037113;28;20029;-75
2022/11/01 00:08:59;;;;;;;31.23;27.75;;;10.30;99.90;;;;;;5041198;28;20022;-73
2022/11/01 00:11:25;;;;;;;32.25;27.77;;;10.30;99.90;;;;;;5028648;28;20075;-74
2022/11/01 00:13:51;;;;;;;30.55;25.35;;;10.20;99.90;;;;;;5031920;28;20418;-74
2022/11/01 00:16:18;;;;;;;29.33;23.83;;;10.20;99.90;;;;;;5032001;28;20025;-76
2022/11/01 00:18:44;;;;;;;36.33;28.50;;;10.20;99.90;;;;;;5042770;28;20040;-73
2022/11/01 00:21:10;;;;;;;28.35;24.40;;;10.20;99.90;;;;;;5034248;28;20380;-72
2022/11/01 00:23:36;;;;;;;29.98;24.92;;;10.30;99.90;;;;;;5032129;28;20028;-76
2022/11/01 00:26:02;;;;;;;26.08;20.55;;;10.20;99.90;;;;;;5031804;28;20060;-76
2022/11/01 00:28:28;;;;;;;28.70;25.63;;;10.30;99.90;;;;;;5030317;28;20045;-75
2022/11/01 00:30:55;;;;;;;28.58;23.88;;;10.30;99.90;;;;;;5017240;28;20033;-74
2022/11/01 00:33:21;;;;;;;41.13;31.33;;;10.40;99.90;;;;;;5033735;28;20029;-75
2022/11/01 00:35:47;;;;;;;37.78;32.72;;;10.20;99.90;;;;;;5020216;28;20150;-75
2022/11/01 00:38:13;;;;;;;37.03;31.05;;;10.10;99.90;;;;;;5022478;28;20498;-76
2022/11/01 00:40:40;;;;;;;41.03;31.58;;;10.00;99.90;;;;;;5033331;28;20032;-76
2022/11/01 00:43:05;;;;;;;36.72;29.63;;;10.00;99.90;;;;;;5031607;28;20021;-75
2022/11/01 00:45:31;;;;;;;34.05;29.23;;;10.00;99.90;;;;;;5031607;28;20104;-75
2022/11/01 00:47:56;;;;;;;29.63;25.02;;;10.10;99.90;;;;;;5031370;28;20113;-75
2022/11/01 00:50:22;;;;;;;30.67;26.00;;;10.20;99.90;;;;;;5033635;28;20025;-75
2022/11/01 00:52:47;;;;;;;27.83;24.73;;;10.30;99.90;;;;;;5040209;28;20545;-75
2022/11/01 00:55:13;;;;;;;33.47;26.45;;;10.30;99.90;;;;;;5030114;28;20049;-76
2022/11/01 00:57:39;;;;;;;31.85;23.48;;;10.30;99.90;;;;;;5029896;28;20029;-75
2022/11/01 01:00:06;;;;;;;34.75;28.48;;;10.40;99.90;;;;;;5035597;28;20094;-75
2022/11/01 01:02:31;;;;;;;31.58;26.50;;;10.40;99.90;;;;;;5022598;28;20578;-76
2022/11/01 01:04:57;;;;;;;31.13;25.63;;;10.40;99.90;;;;;;5045195;28;20056;-76
2022/11/01 01:07:22;;;;;;;28.65;24.08;;;10.30;99.90;;;;;;5023032;28;20044;-76
2022/11/01 01:09:48;;;;;;;27.08;20.20;;;10.40;99.90;;;;;;5014035;28;20106;-76
2022/11/01 01:12:13;;;;;;;29.15;21.20;;;10.40;99.90;;;;;;5046102;28;20385;-76
2022/11/01 01:14:39;;;;;;;31.98;23.75;;;10.40;99.90;;;;;;5037541;28;20044;-75
2022/11/01 01:17:05;;;;;;;31.33;23.00;;;10.50;99.90;;;;;;5025529;28;20025;-76
2022/11/01 01:19:30;;;;;;;26.15;20.48;;;10.50;99.90;;;;;;5039691;28;20025;-75
2022/11/01 01:21:56;;;;;;;27.33;20.52;;;10.70;99.90;;;;;;5044432;28;20028;-75
2022/11/01 01:24:22;;;;;;;30.20;24.08;;;10.80;99.90;;;;;;5030796;28;20017;-75
2022/11/01 01:26:47;;;;;;;25.50;20.02;;;10.80;99.90;;;;;;5024544;28;20038;-74
2022/11/01 01:29:15;;;;;;;30.25;21.40;;;10.80;99.90;;;;;;5035195;28;20025;-74
2022/11/01 01:31:40;;;;;;;33.28;23.67;;;10.70;99.90;;;;;;5035199;28;20072;-75
2022/11/01 01:34:06;;;;;;;27.75;22.35;;;10.60;99.90;;;;;;5048354;28;20033;-74
2022/11/01 01:36:31;;;;;;;27.63;21.08;;;10.60;99.90;;;;;;5035221;28;20084;-76
2022/11/01 01:38:57;;;;;;;29.30;21.92;;;10.70;99.90;;;;;;5040598;28;20490;-76
2022/11/01 01:44:44;;;;;;;28.70;21.70;;;10.80;99.90;;;;;;5036573;28;20518;-76
2022/11/01 01:47:17;;;;;;;26.00;20.83;;;10.80;99.90;;;;;;5021484;28;20036;-76
2022/11/01 01:49:43;;;;;;;31.88;22.27;;;10.80;99.90;;;;;;5047697;28;20029;-76
2022/11/01 01:52:09;;;;;;;29.38;22.42;;;10.70;99.90;;;;;;5042207;28;20017;-76
2022/11/01 01:54:35;;;;;;;29.05;22.15;;;10.80;99.90;;;;;;5043188;28;20109;-76
2022/11/01 01:57:01;;;;;;;29.80;22.42;;;10.80;99.90;;;;;;5048102;28;20025;-75
2022/11/01 01:59:27;;;;;;;32.97;25.52;;;10.80;99.90;;;;;;5034614;28;20064;-76
2022/11/01 02:01:53;;;;;;;47.42;29.83;;;10.90;99.90;;;;;;5034457;28;20036;-76
2022/11/01 02:04:37;;;;;;;36.72;27.02;;;11.00;99.90;;;;;;5025616;28;20022;-76
2022/11/01 02:07:03;;;;;;;39.85;31.30;;;11.20;99.90;;;;;;5022474;28;20100;-76
2022/11/01 02:09:29;;;;;;;43.83;31.85;;;11.20;99.90;;;;;;5036296;28;20448;-76
2022/11/01 02:11:56;;;;;;;44.72;32.20;;;11.30;99.90;;;;;;5045958;28;20017;-76
2022/11/01 02:14:24;;;;;;;44.72;33.22;;;11.30;99.90;;;;;;5034261;28;20033;-76
2022/11/01 02:17:19;;;;;;;45.80;33.40;;;11.40;99.90;;;;;;5037924;28;20495;-77
2022/11/01 02:20:05;;;;;;;44.38;33.55;;;11.50;99.90;;;;;;5002371;28;20037;-77
2022/11/01 02:22:45;;;;;;;44.40;35.80;;;11.40;99.90;;;;;;5033630;28;20564;-76
2022/11/01 02:25:41;;;;;;;47.38;35.38;;;11.40;99.90;;;;;;5034116;28;20384;-75
2022/11/01 02:28:34;;;;;;;50.60;35.47;;;11.40;99.90;;;;;;5033947;28;20021;-74
2022/11/01 02:31:16;;;;;;;51.25;36.20;;;11.60;99.90;;;;;;5033909;28;20030;-76
2022/11/01 02:33:46;;;;;;;50.67;36.80;;;11.60;99.90;;;;;;5032576;28;20568;-75
2022/11/01 02:36:32;;;;;;;51.47;38.13;;;11.50;99.90;;;;;;5027236;28;20116;-75
2022/11/01 02:39:18;;;;;;;52.40;36.97;;;11.40;99.90;;;;;;5033639;28;20045;-76
2022/11/01 02:41:50;;;;;;;56.22;38.35;;;11.40;99.90;;;;;;5026711;28;20094;-75
2022/11/01 02:44:21;;;;;;;49.65;36.67;;;11.40;99.90;;;;;;5033840;28;20049;-76
2022/11/01 02:47:02;;;;;;;51.17;37.75;;;11.40;99.90;;;;;;5033656;28;20032;-75
2022/11/01 02:49:27;;;;;;;48.45;37.65;;;11.50;99.90;;;;;;5033817;28;20403;-75
2022/11/01 02:51:55;;;;;;;45.63;36.95;;;11.40;99.90;;;;;;5037064;28;20029;-75
2022/11/01 02:54:27;;;;;;;55.28;37.42;;;11.20;99.90;;;;;;5042977;28;20499;-75
2022/11/01 02:56:53;;;;;;;53.22;38.13;;;11.50;99.90;;;;;;5022058;28;20115;-75
2022/11/01 02:59:23;;;;;;;54.00;38.35;;;11.60;99.90;;;;;;5035640;28;20033;-75
2022/11/01 03:02:09;;;;;;;48.15;35.88;;;11.60;99.90;;;;;;5048859;28;20026;-75
2022/11/01 03:04:35;;;;;;;47.13;36.50;;;11.60;99.90;;;;;;5032204;28;20024;-75
2022/11/01 03:07:04;;;;;;;54.28;37.25;;;11.70;99.90;;;;;;5033320;28;20029;-74
2022/11/01 03:09:32;;;;;;;51.33;38.72;;;11.60;99.90;;;;;;5026463;28;20029;-74
2022/11/01 03:12:10;;;;;;;52.15;38.22;;;11.60;99.90;;;;;;5044278;28;20029;-74
2022/11/01 03:14:41;;;;;;;55.92;38.17;;;11.50;99.90;;;;;;5031953;28;20059;-76
2022/11/01 03:17:14;;;;;;;53.55;39.70;;;11.50;99.90;;;;;;5034635;28;20025;-75
2022/11/01 03:19:47;;;;;;;44.05;35.47;;;11.40;99.90;;;;;;5038465;28;20021;-76
2022/11/01 03:22:46;;;;;;;51.22;38.42;;;11.40;99.90;;;;;;5040210;28;20029;-75
2022/11/01 03:25:43;;;;;;;55.00;40.28;;;11.40;99.90;;;;;;5019546;28;20052;-76
2022/11/01 03:28:16;;;;;;;46.10;36.92;;;11.40;99.90;;;;;;5030984;28;20487;-77
2022/11/01 03:30:54;;;;;;;51.70;39.97;;;11.40;99.90;;;;;;5033750;28;20072;-77
2022/11/01 03:33:21;;;;;;;52.65;40.58;;;11.40;99.90;;;;;;5033687;28;20423;-76
2022/11/01 03:35:50;;;;;;;56.80;41.17;;;11.40;99.90;;;;;;5037915;28;20025;-76
2022/11/01 03:38:20;;;;;;;51.85;39.88;;;11.30;99.90;;;;;;5041082;28;20167;-76
2022/11/01 03:40:52;;;;;;;58.53;41.65;;;11.20;99.90;;;;;;5032846;28;20028;-76
2022/11/01 03:43:20;;;;;;;64.13;44.58;;;11.20;99.90;;;;;;5022209;28;20029;-76
2022/11/01 03:45:46;;;;;;;61.55;44.65;;;11.20;99.90;;;;;;5039678;28;20021;-76
2022/11/01 03:48:12;;;;;;;57.63;42.38;;;11.20;99.90;;;;;;5039273;28;20030;-76
2022/11/01 03:50:39;;;;;;;58.72;42.25;;;11.20;99.90;;;;;;5032666;28;20406;-76
2022/11/01 03:53:05;;;;;;;59.10;41.30;;;11.20;99.90;;;;;;5036563;28;20031;-77
2022/11/01 03:55:30;;;;;;;52.42;40.63;;;11.10;99.90;;;;;;5020330;28;20037;-77
2022/11/01 03:57:58;;;;;;;57.58;40.67;;;11.20;99.90;;;;;;5034853;28;20463;-77
2022/11/01 04:00:27;;;;;;;56.20;42.50;;;11.20;99.90;;;;;;5029790;28;20025;-77
2022/11/01 04:02:54;;;;;;;55.83;40.40;;;11.20;99.90;;;;;;5034889;28;20037;-77
2022/11/01 04:05:23;;;;;;;51.08;40.47;;;11.30;99.90;;;;;;5021236;28;20132;-77
2022/11/01 04:07:50;;;;;;;55.80;39.33;;;11.40;99.90;;;;;;5034740;28;20018;-77
2022/11/01 04:10:16;;;;;;;51.05;37.58;;;11.30;99.90;;;;;;5035177;28;20025;-77
2022/11/01 04:12:46;;;;;;;53.15;39.97;;;11.50;99.90;;;;;;5047749;28;20471;-77
2022/11/01 04:21:10;;;;;;;56.15;40.78;;;11.40;99.90;;;;;;5046044;28;20036;-76
2022/11/01 04:23:35;;;;;;;48.50;39.03;;;11.10;99.90;;;;;;5032085;28;20404;-77
2022/11/01 04:26:02;;;;;;;53.08;39.85;;;11.10;99.90;;;;;;5032033;28;20025;-76
2022/11/01 04:28:28;;;;;;;53.45;38.83;;;11.20;99.90;;;;;;5030304;28;20098;-76
2022/11/01 04:30:53;;;;;;;54.15;40.75;;;11.20;99.90;;;;;;5036729;28;20503;-76
2022/11/01 04:33:19;;;;;;;52.20;41.35;;;11.30;99.90;;;;;;5039943;28;20483;-76
2022/11/01 04:35:45;;;;;;;54.25;41.15;;;11.20;99.90;;;;;;5031632;28;20043;-76
2022/11/01 04:38:11;;;;;;;52.42;40.38;;;11.30;99.90;;;;;;5030367;28;20152;-76
2022/11/01 04:40:36;;;;;;;56.30;40.75;;;11.30;99.90;;;;;;5033922;28;20072;-77
2022/11/01 04:43:02;;;;;;;53.65;40.60;;;11.30;99.90;;;;;;5032030;28;20021;-76
2022/11/01 04:45:28;;;;;;;54.35;40.55;;;11.30;99.90;;;;;;5031379;28;20109;-77
2022/11/01 04:48:12;;;;;;;57.13;40.00;;;11.30;99.90;;;;;;5031965;28;20038;-76
2022/11/01 04:50:38;;;;;;;58.50;41.38;;;11.40;99.90;;;;;;5019002;28;20108;-76
2022/11/01 04:53:04;;;;;;;50.22;37.13;;;11.40;99.90;;;;;;5031727;28;20025;-76
2022/11/01 04:55:29;;;;;;;51.50;40.00;;;11.40;99.90;;;;;;5027508;28;20033;-76
2022/11/01 04:57:56;;;;;;;52.17;40.40;;;11.40;99.90;;;;;;5045039;28;20433;-76
2022/11/01 05:00:22;;;;;;;51.78;41.13;;;11.40;99.90;;;;;;5021032;28;20021;-76
2022/11/01 05:02:48;;;;;;;54.55;38.70;;;11.40;99.90;;;;;;5038289;28;20044;-76
2022/11/01 05:05:14;;;;;;;50.42;38.60;;;11.40;99.90;;;;;;5044646;28;20026;-76
2022/11/01 05:07:39;;;;;;;47.90;36.05;;;11.40;99.90;;;;;;5044737;28;20444;-75
2022/11/01 05:10:07;;;;;;;50.92;39.15;;;11.40;99.90;;;;;;5038393;28;20029;-75
2022/11/01 05:12:33;;;;;;;50.03;37.35;;;11.50;99.90;;;;;;5036964;28;20148;-75
2022/11/01 05:14:58;;;;;;;44.38;35.92;;;11.50;99.90;;;;;;5031291;28;20096;-75
2022/11/01 05:17:24;;;;;;;52.67;39.22;;;11.50;99.90;;;;;;5031195;28;20026;-76
2022/11/01 05:19:49;;;;;;;47.70;38.38;;;11.50;99.90;;;;;;5032106;28;20029;-76
2022/11/01 05:22:16;;;;;;;52.97;39.63;;;11.50;99.90;;;;;;5044651;28;20093;-76
2022/11/01 05:24:42;;;;;;;52.88;38.38;;;11.50;99.90;;;;;;5018881;28;20045;-77
2022/11/01 05:27:08;;;;;;;52.53;39.33;;;11.50;99.90;;;;;;5032607;28;20030;-76
2022/11/01 05:29:33;;;;;;;48.33;38.55;;;11.50;99.90;;;;;;5032453;28;20403;-76
2022/11/01 05:31:59;;;;;;;54.58;37.88;;;11.50;99.90;;;;;;5023356;28;20037;-77
2022/11/01 05:34:25;;;;;;;45.60;35.47;;;11.50;99.90;;;;;;5045500;28;20026;-76
2022/11/01 05:36:52;;;;;;;55.60;40.13;;;11.40;99.90;;;;;;5030814;28;20067;-75
2022/11/01 05:39:18;;;;;;;60.63;42.65;;;11.50;99.90;;;;;;5031139;28;20037;-75
2022/11/01 05:41:43;;;;;;;54.97;37.20;;;11.30;99.90;;;;;;5031045;28;20074;-75
2022/11/01 05:44:09;;;;;;;46.75;36.17;;;11.30;99.90;;;;;;5031083;28;20433;-76
2022/11/01 05:46:34;;;;;;;49.63;37.17;;;11.40;99.90;;;;;;5031055;28;20537;-75
2022/11/01 05:49:00;;;;;;;49.33;37.67;;;11.40;99.90;;;;;;5030667;28;20029;-74
2022/11/01 05:51:25;;;;;;;48.67;37.55;;;11.50;99.90;;;;;;5043842;28;20021;-75
2022/11/01 05:53:51;;;;;;;51.45;38.47;;;11.60;99.90;;;;;;5016232;28;20030;-76
2022/11/01 05:56:17;;;;;;;54.13;40.17;;;11.50;99.90;;;;;;5030974;28;20080;-75
2022/11/01 05:58:42;;;;;;;52.40;38.55;;;11.60;99.90;;;;;;5034342;28;20399;-75
2022/11/01 06:01:09;;;;;;;56.42;39.65;;;11.50;99.90;;;;;;5034710;28;20021;-75
2022/11/01 06:03:35;;;;;;;55.38;41.13;;;11.60;99.90;;;;;;5034338;28;20053;-75
2022/11/01 06:06:01;;;;;;;56.80;39.03;;;11.60;99.90;;;;;;5034619;28;20096;-75
2022/11/01 06:08:27;;;;;;;54.72;40.28;;;11.60;99.90;;;;;;5034375;28;20056;-75
2022/11/01 06:10:59;;;;;;;49.53;40.08;;;11.70;99.90;;;;;;5034456;28;20030;-75
2022/11/01 06:13:24;;;;;;;47.03;37.80;;;11.70;99.90;;;;;;5034390;28;20037;-75
2022/11/01 06:15:59;;;;;;;49.65;39.53;;;11.70;99.90;;;;;;5034452;28;20087;-76
2022/11/01 06:18:25;;;;;;;61.65;46.50;;;11.70;99.90;;;;;;5023243;28;20060;-75
2022/11/01 06:20:51;;;;;;;70.10;48.70;;;11.90;99.90;;;;;;5033037;28;20049;-76
2022/11/01 06:23:17;;;;;;;57.63;41.22;;;11.80;99.90;;;;;;5034325;28;20021;-75
2022/11/01 06:25:42;;;;;;;53.30;37.55;;;11.80;99.90;;;;;;5036309;28;20494;-75
2022/11/01 06:28:08;;;;;;;66.90;48.70;;;11.80;99.90;;;;;;5027586;28;20037;-75
2022/11/01 06:30:33;;;;;;;83.68;54.75;;;11.80;99.90;;;;;;5034074;28;20030;-76
2022/11/01 06:33:00;;;;;;;285.48;156.30;;;11.80;99.90;;;;;;5033980;28;20029;-75
2022/11/01 06:35:26;;;;;;;186.05;109.60;;;11.90;99.90;;;;;;5034051;28;20025;-75
2022/11/01 06:38:00;;;;;;;143.77;86.75;;;11.90;99.90;;;;;;5032607;28;20030;-76
2022/11/01 06:40:25;;;;;;;81.00;51.72;;;11.90;99.90;;;;;;5034131;28;20021;-75
2022/11/01 06:42:51;;;;;;;205.30;132.80;;;12.00;99.90;;;;;;5034010;28;20037;-76
2022/11/01 06:45:16;;;;;;;250.68;158.25;;;12.10;99.90;;;;;;5036643;28;20029;-76
2022/11/01 06:47:46;;;;;;;65.55;44.55;;;12.10;99.90;;;;;;5044119;28;20498;-76
2022/11/01 06:50:12;;;;;;;46.08;35.08;;;12.10;99.90;;;;;;5037058;28;20025;-76
2022/11/01 06:52:37;;;;;;;42.22;30.23;;;12.20;99.90;;;;;;5043800;28;20037;-76
2022/11/01 06:55:03;;;;;;;38.60;29.85;;;12.20;99.90;;;;;;5033806;28;20022;-76
2022/11/01 06:57:28;;;;;;;44.50;32.42;;;12.30;99.90;;;;;;5033602;28;20021;-76
2022/11/01 06:59:54;;;;;;;61.22;45.38;;;12.30;99.90;;;;;;5033541;28;20498;-76
2022/11/01 07:02:19;;;;;;;42.95;31.45;;;12.30;99.90;;;;;;5033556;28;20093;-75
2022/11/01 07:04:45;;;;;;;42.75;36.35;;;12.30;99.90;;;;;;5033585;28;20018;-76
2022/11/01 07:07:11;;;;;;;39.15;31.02;;;12.30;99.90;;;;;;5033614;28;20025;-76
2022/11/01 07:09:37;;;;;;;43.00;32.22;;;12.40;99.90;;;;;;5033347;28;20083;-75
2022/11/01 07:12:02;;;;;;;71.13;59.53;;;12.40;99.90;;;;;;5043033;28;20029;-75
2022/11/01 07:14:29;;;;;;;48.60;37.30;;;12.40;99.90;;;;;;5036498;28;20049;-75
2022/11/01 07:16:55;;;;;;;44.10;30.92;;;12.40;99.90;;;;;;5033551;28;20072;-76
2022/11/01 07:19:22;;;;;;;44.30;32.92;;;12.40;99.90;;;;;;5033189;28;20499;-76
2022/11/01 07:21:48;;;;;;;39.92;29.40;;;12.40;99.90;;;;;;5043439;28;20055;-76
2022/11/01 07:24:13;;;;;;;38.28;30.67;;;12.50;99.90;;;;;;5035822;28;20049;-76
2022/11/01 07:26:39;;;;;;;41.35;29.67;;;12.50;99.90;;;;;;5025026;28;20026;-76
2022/11/01 07:29:04;;;;;;;45.08;32.22;;;12.60;99.90;;;;;;5032971;28;20025;-76
2022/11/01 07:31:32;;;;;;;42.13;30.95;;;12.60;99.90;;;;;;5033107;28;20029;-76
2022/11/01 07:33:58;;;;;;;38.92;27.73;;;12.70;99.90;;;;;;5031637;28;20503;-76
2022/11/01 07:36:24;;;;;;;37.55;27.45;;;12.80;99.90;;;;;;5033080;28;20029;-76
2022/11/01 07:38:49;;;;;;;36.90;26.60;;;12.80;99.90;;;;;;5028647;28;20049;-76
2022/11/01 07:41:15;;;;;;;36.00;28.10;;;12.80;99.90;;;;;;5032771;28;20476;-76
2022/11/01 07:43:41;;;;;;;33.10;26.42;;;13.00;99.90;;;;;;5032758;28;20112;-76
2022/11/01 07:46:06;;;;;;;35.70;24.35;;;13.00;99.90;;;;;;5043135;28;20032;-76
2022/11/01 07:48:33;;;;;;;30.10;23.10;;;13.00;99.90;;;;;;5035368;28;20034;-76
2022/11/01 07:51:01;;;;;;;33.53;24.13;;;13.00;99.90;;;;;;5032743;28;20025;-77
2022/11/01 07:53:27;;;;;;;32.08;23.30;;;13.10;99.90;;;;;;5032640;28;20037;-77
2022/11/01 07:55:52;;;;;;;28.25;22.55;;;13.10;99.90;;;;;;5032575;28;20032;-77
2022/11/01 07:58:18;;;;;;;25.77;20.13;;;13.10;99.90;;;;;;5035889;28;20108;-77
2022/11/01 08:00:44;;;;;;;28.00;20.38;;;13.50;99.90;;;;;;5042126;28;20021;-77
2022/11/01 08:03:15;;;;;;;28.55;22.42;;;13.20;99.90;;;;;;5017964;28;20548;-77
2022/11/01 08:05:44;;;;;;;27.80;21.77;;;13.30;99.90;;;;;;5032551;28;20472;-77
2022/11/01 08:08:09;;;;;;;29.75;19.33;;;13.30;99.90;;;;;;5032073;28;20033;-77
2022/11/01 08:10:36;;;;;;;26.05;19.80;;;13.40;99.90;;;;;;5034463;28;20058;-77
2022/11/01 08:13:06;;;;;;;22.38;17.00;;;13.50;99.90;;;;;;5033992;28;20029;-76
2022/11/01 08:15:32;;;;;;;24.77;17.60;;;13.60;99.90;;;;;;5031814;28;20061;-77
2022/11/01 08:17:59;;;;;;;23.40;17.13;;;13.70;99.90;;;;;;5027348;28;20036;-77
2022/11/01 08:20:26;;;;;;;22.15;17.70;;;13.90;99.90;;;;;;5031304;28;20021;-76
2022/11/01 08:22:52;;;;;;;22.95;17.20;;;14.00;99.90;;;;;;5032178;28;20239;-77
2022/11/01 08:25:18;;;;;;;22.35;16.10;;;14.00;99.90;;;;;;5032166;28;20025;-76
2022/11/01 08:27:44;;;;;;;18.73;14.32;;;14.20;99.90;;;;;;5031894;28;20151;-76
2022/11/01 08:30:10;;;;;;;20.77;14.63;;;14.30;99.90;;;;;;5022447;28;20064;-76
2022/11/01 08:32:36;;;;;;;19.67;13.20;;;14.40;99.90;;;;;;5032042;28;20068;-76
2022/11/01 08:35:02;;;;;;;18.35;12.77;;;14.40;99.90;;;;;;5022341;28;20031;-77
2022/11/01 08:37:27;;;;;;;21.08;12.57;;;14.40;99.90;;;;;;5031599;28;20026;-77
2022/11/01 08:39:53;;;;;;;19.67;12.98;;;14.50;99.90;;;;;;5022179;28;20026;-76
2022/11/01 08:42:19;;;;;;;15.85;12.63;;;14.40;99.90;;;;;;5031842;28;20386;-76
2022/11/01 08:44:44;;;;;;;19.95;12.23;;;14.50;99.90;;;;;;5031778;28;20021;-76
2022/11/01 08:47:10;;;;;;;17.17;12.13;;;14.50;99.90;;;;;;5031847;28;20025;-76
2022/11/01 08:49:36;;;;;;;18.00;11.27;;;14.50;99.90;;;;;;5022474;28;20604;-76
2022/11/01 08:52:01;;;;;;;14.18;9.73;;;14.60;99.90;;;;;;5031819;28;20051;-76
2022/11/01 08:54:27;;;;;;;21.02;9.68;;;14.60;99.90;;;;;;5031738;28;20498;-76
2022/11/01 08:56:53;;;;;;;16.65;10.38;;;14.60;99.90;;;;;;5015244;28;20030;-76
2022/11/01 08:59:19;;;;;;;15.98;10.40;;;14.60;99.90;;;;;;5031647;28;20022;-76
2022/11/01 09:01:44;;;;;;;15.68;11.15;;;14.70;99.90;;;;;;5031663;28;20044;-76
2022/11/01 09:04:11;;;;;;;17.05;11.13;;;14.80;99.90;;;;;;5024963;28;20390;-77
2022/11/01 09:06:37;;;;;;;14.13;10.13;;;14.90;99.90;;;;;;5028777;28;20042;-76
2022/11/01 09:09:03;;;;;;;16.98;10.30;;;14.90;99.90;;;;;;5029998;28;20034;-76
2022/11/01 09:11:29;;;;;;;15.32;9.70;;;15.00;99.90;;;;;;5031399;28;20033;-76
2022/11/01 09:13:56;;;;;;;13.98;9.02;;;15.10;99.90;;;;;;5030672;28;20033;-76
2022/11/01 09:16:22;;;;;;;13.88;9.20;;;15.20;99.90;;;;;;5044956;28;20022;-76
2022/11/01 09:18:48;;;;;;;15.20;8.93;;;15.30;99.90;;;;;;5021876;28;20029;-76
2022/11/01 09:21:14;;;;;;;12.30;7.78;;;15.30;99.90;;;;;;5016782;28;20503;-76
2022/11/01 09:23:39;;;;;;;10.27;7.35;;;15.30;99.90;;;;;;5030112;28;20029;-77
2022/11/01 09:26:07;;;;;;;11.32;7.60;;;15.40;99.90;;;;;;5031569;28;20105;-76
2022/11/01 09:28:33;;;;;;;11.65;7.53;;;15.40;99.90;;;;;;5031365;28;20026;-76
2022/11/01 09:31:04;;;;;;;12.48;6.70;;;15.40;99.90;;;;;;5031424;28;20498;-76
2022/11/01 09:33:30;;;;;;;12.45;7.28;;;15.50;99.90;;;;;;5035036;28;20033;-76
2022/11/01 09:35:56;;;;;;;12.65;6.82;;;15.60;99.90;;;;;;5031238;28;20029;-77
2022/11/01 09:38:21;;;;;;;10.57;6.70;;;15.50;99.90;;;;;;5035124;28;20048;-76
2022/11/01 09:41:11;;;;;;;11.35;6.72;;;15.50;99.90;;;;;;5035223;28;20026;-76
2022/11/01 09:43:39;;;;;;;12.02;7.70;;;15.60;99.90;;;;;;5024234;28;20065;-77
2022/11/01 09:46:06;;;;;;;11.48;6.80;;;15.60;99.90;;;;;;5035095;28;20021;-76
2022/11/01 09:48:34;;;;;;;11.30;7.07;;;15.60;99.90;;;;;;5034791;28;20052;-76
2022/11/01 09:51:03;;;;;;;12.43;7.50;;;15.60;99.90;;;;;;5035060;28;20033;-77
2022/11/01 09:53:30;;;;;;;9.18;6.65;;;15.70;99.90;;;;;;5034895;28;20124;-75
2022/11/01 09:56:18;;;;;;;9.55;6.53;;;15.70;99.90;;;;;;5035965;28;20029;-77
2022/11/01 09:59:22;;;;;;;10.63;6.40;;;15.70;99.90;;;;;;5019793;28;20446;-76
2022/11/01 10:02:04;;;;;;;12.63;6.35;;;15.60;99.90;;;;;;5018493;28;20379;-77
2022/11/01 10:05:00;;;;;;;11.63;6.70;;;15.80;99.90;;;;;;5033612;28;20013;-76
2022/11/01 10:07:31;;;;;;;16.30;7.65;;;15.90;99.90;;;;;;5012566;28;20026;-76
2022/11/01 10:10:17;;;;;;;13.65;7.28;;;16.00;99.90;;;;;;5031934;28;20076;-76
2022/11/01 10:13:19;;;;;;;10.63;6.53;;;16.00;99.90;;;;;;5033642;28;20072;-76
2022/11/01 10:16:03;;;;;;;9.75;6.68;;;15.90;99.90;;;;;;5025633;28;20032;-77
2022/11/01 10:18:31;;;;;;;10.85;7.45;;;16.00;99.90;;;;;;5010760;28;20022;-76
2022/11/01 10:21:01;;;;;;;12.38;6.68;;;16.00;99.90;;;;;;5033547;28;20018;-77
2022/11/01 10:23:52;;;;;;;10.93;6.88;;;16.00;99.90;;;;;;5034209;28;20482;-76
2022/11/01 10:26:26;;;;;;;11.52;6.65;;;16.20;99.90;;;;;;5034325;28;20483;-77
2022/11/01 10:29:11;;;;;;;8.80;5.78;;;16.00;99.90;;;;;;5047522;28;20533;-77
2022/11/01 10:31:43;;;;;;;10.97;7.00;;;16.30;99.90;;;;;;5044493;28;20029;-77
2022/11/01 10:34:27;;;;;;;8.35;5.90;;;16.20;99.90;;;;;;5036126;28;20033;-77
2022/11/01 10:37:13;;;;;;;7.70;5.80;;;16.10;99.90;;;;;;5033956;28;20033;-77
2022/11/01 10:39:55;;;;;;;8.60;5.57;;;16.10;99.90;;;;;;5033992;28;20022;-77
2022/11/01 10:42:21;;;;;;;9.10;6.18;;;16.10;99.90;;;;;;5033743;28;20484;-76
2022/11/01 10:44:54;;;;;;;9.18;6.13;;;16.00;99.90;;;;;;5032640;28;20071;-77
2022/11/01 10:47:22;;;;;;;11.63;6.30;;;15.90;99.90;;;;;;5033596;28;20022;-77
2022/11/01 10:50:05;;;;;;;9.93;5.50;;;15.90;99.90;;;;;;5033782;28;20038;-76
2022/11/01 10:52:49;;;;;;;8.60;5.80;;;15.90;99.90;;;;;;5013547;28;20029;-77
2022/11/01 10:55:40;;;;;;;8.73;5.80;;;16.00;99.90;;;;;;5035861;28;20025;-76
2022/11/01 10:58:19;;;;;;;11.52;6.25;;;16.00;99.90;;;;;;5046738;28;20491;-77
2022/11/01 11:00:45;;;;;;;7.65;5.75;;;15.90;99.90;;;;;;5021866;28;20045;-77
2022/11/01 11:03:31;;;;;;;9.35;5.60;;;15.80;99.90;;;;;;5033375;28;20064;-77
2022/11/01 11:06:03;;;;;;;7.28;4.95;;;15.80;99.90;;;;;;5033204;28;20446;-77
2022/11/01 11:08:30;;;;;;;7.30;5.10;;;16.00;99.90;;;;;;5035844;28;20491;-77
2022/11/01 11:11:01;;;;;;;10.68;5.38;;;16.10;99.90;;;;;;5052571;28;20025;-77
2022/11/01 11:13:27;;;;;;;8.43;5.35;;;15.80;99.90;;;;;;5031891;28;20060;-77
2022/11/01 11:16:03;;;;;;;7.05;4.97;;;15.90;99.90;;;;;;5033155;28;20025;-76
2022/11/01 11:18:32;;;;;;;8.25;4.82;;;15.90;99.90;;;;;;5033056;28;20100;-77
2022/11/01 11:21:05;;;;;;;9.20;4.90;;;15.90;99.90;;;;;;5033035;28;20372;-77
2022/11/01 11:23:33;;;;;;;9.23;4.82;;;15.80;99.90;;;;;;5033070;28;20483;-76
2022/11/01 11:26:08;;;;;;;7.00;5.00;;;15.80;99.90;;;;;;5028450;28;20056;-76
2022/11/01 11:28:42;;;;;;;7.05;4.50;;;15.90;99.90;;;;;;5032791;28;20063;-76
2022/11/01 11:31:14;;;;;;;8.13;5.75;;;15.80;99.90;;;;;;5031853;28;20029;-76
2022/11/01 11:33:55;;;;;;;13.43;4.70;;;15.90;99.90;;;;;;5031494;28;20033;-76
2022/11/01 11:36:28;;;;;;;7.00;4.70;;;15.90;99.90;;;;;;5031612;28;20049;-76
2022/11/01 11:38:54;;;;;;;9.52;4.50;;;15.90;99.90;;;;;;5032411;28;20561;-76
2022/11/01 11:41:29;;;;;;;8.05;4.72;;;15.90;99.90;;;;;;5032389;28;20033;-77
2022/11/01 11:43:54;;;;;;;5.20;4.38;;;15.90;99.90;;;;;;5031963;28;20029;-77
2022/11/01 11:46:22;;;;;;;6.05;3.65;;;16.40;99.90;;;;;;5033112;28;20128;-77
2022/11/01 11:48:55;;;;;;;8.00;3.67;;;16.30;99.90;;;;;;5031894;28;20028;-77
2022/11/01 11:51:25;;;;;;;6.63;4.18;;;16.40;99.90;;;;;;5040271;28;20029;-77
2022/11/01 11:54:30;;;;;;;4.85;3.22;;;16.50;99.90;;;;;;5033264;28;20025;-77
2022/11/01 11:57:17;;;;;;;7.85;3.10;;;16.50;99.90;;;;;;5031568;28;20025;-77
2022/11/01 11:59:44;;;;;;;4.88;3.20;;;16.20;99.90;;;;;;5019774;28;20017;-77
2022/11/01 12:02:33;;;;;;;6.45;3.25;;;16.20;99.90;;;;;;5037620;28;20032;-75
2022/11/01 12:05:02;;;;;;;4.93;2.92;;;16.20;99.90;;;;;;5032049;28;20075;-76
2022/11/01 12:07:45;;;;;;;5.82;3.17;;;16.20;99.90;;;;;;5043388;28;20017;-75
2022/11/01 12:10:35;;;;;;;8.98;3.20;;;16.20;99.90;;;;;;5027916;28;20021;-76
2022/11/01 12:13:03;;;;;;;5.63;3.50;;;16.30;99.90;;;;;;5035081;28;20060;-76
2022/11/01 12:15:30;;;;;;;5.53;3.30;;;16.30;99.90;;;;;;5044102;28;20021;-76
2022/11/01 12:18:06;;;;;;;4.57;2.88;;;16.30;99.90;;;;;;5034629;28;20021;-75
2022/11/01 12:20:36;;;;;;;10.63;3.47;;;16.40;99.90;;;;;;5039651;28;20022;-76
2022/11/01 12:23:27;;;;;;;7.45;3.90;;;16.50;99.90;;;;;;5027954;28;20033;-75
2022/11/01 12:25:54;;;;;;;6.90;3.58;;;16.50;99.90;;;;;;5032619;28;20022;-76
2022/11/01 12:28:35;;;;;;;6.50;2.90;;;16.70;99.90;;;;;;5031000;28;20029;-76
2022/11/01 12:31:11;;;;;;;5.07;3.13;;;16.50;99.90;;;;;;5036726;28;20033;-75
2022/11/01 12:33:45;;;;;;;4.65;2.53;;;16.50;99.90;;;;;;5032119;28;20361;-75
2022/11/01 12:36:13;;;;;;;4.85;2.90;;;16.50;99.90;;;;;;5031973;28;20397;-75
2022/11/01 12:38:46;;;;;;;4.70;3.05;;;16.50;99.90;;;;;;5027721;28;20453;-75
2022/11/01 12:41:21;;;;;;;3.97;2.70;;;16.60;99.90;;;;;;5024473;28;20029;-76
2022/11/01 12:44:14;;;;;;;4.35;3.05;;;17.00;99.90;;;;;;5030401;28;20044;-75
2022/11/01 12:47:18;;;;;;;5.65;2.80;;;16.90;99.90;;;;;;5031818;28;20025;-76
2022/11/01 12:49:55;;;;;;;5.35;2.60;;;16.60;99.90;;;;;;5013717;28;20032;-76
2022/11/01 12:52:41;;;;;;;6.78;2.63;;;16.50;99.90;;;;;;5031934;28;20018;-76
2022/11/01 12:55:16;;;;;;;5.30;2.72;;;16.70;99.90;;;;;;5023820;28;20060;-76